Time;durP1;ratioP1;P1;durP2;ratioP2;P2;SDS_P1;SDS_P2;PMS_P1;PMS_P2;Temp;Humidity;BMP_temperature;BMP_pressure;BME280_temperature;BME280_humidity;BME280_pressure;Samples;Min_cycle;Max_cycle;Signal;HPM_P1;HPM_P2
2021/04/17 00:02:07;;;;;;;18.50;16.50;;;3.70;80.80;;;;;;6099417;23;20451;-85
2021/04/17 00:04:39;;;;;;;17.73;15.83;;;3.60;81.20;;;;;;6090068;23;20411;-88
2021/04/17 00:07:09;;;;;;;22.40;16.80;;;3.60;82.00;;;;;;6097074;23;20482;-86
2021/04/17 00:09:37;;;;;;;18.40;16.20;;;3.60;82.30;;;;;;6098788;23;20450;-84
2021/04/17 00:12:08;;;;;;;17.57;15.73;;;3.60;83.00;;;;;;6088814;23;20435;-84
2021/04/17 00:14:37;;;;;;;18.00;16.10;;;3.50;83.50;;;;;;6087113;23;20415;-84
2021/04/17 00:17:07;;;;;;;20.67;15.80;;;3.50;83.60;;;;;;6095181;23;20411;-84
2021/04/17 00:19:35;;;;;;;18.60;16.60;;;3.50;84.00;;;;;;6093319;23;20395;-85
2021/04/17 00:22:02;;;;;;;21.10;16.30;;;3.50;83.80;;;;;;6084497;23;20418;-88
2021/04/17 00:24:29;;;;;;;19.63;17.13;;;3.50;83.80;;;;;;6105844;23;20502;-84
2021/04/17 00:26:56;;;;;;;19.23;15.60;;;3.60;84.00;;;;;;6126401;23;20471;-85
2021/04/17 00:29:24;;;;;;;19.37;15.97;;;3.50;84.00;;;;;;6118146;23;20402;-88
2021/04/17 00:31:53;;;;;;;19.90;15.43;;;3.40;84.00;;;;;;6117320;23;20445;-85
2021/04/17 00:34:20;;;;;;;18.23;15.33;;;3.40;84.30;;;;;;6095063;23;20874;-83
2021/04/17 00:36:47;;;;;;;20.43;15.67;;;3.30;84.60;;;;;;6118828;23;20937;-87
2021/04/17 00:39:16;;;;;;;18.43;15.57;;;3.30;84.60;;;;;;6118693;23;20414;-85
2021/04/17 00:41:44;;;;;;;17.13;15.10;;;3.30;84.50;;;;;;6105957;23;20541;-85
2021/04/17 00:44:16;;;;;;;16.93;15.13;;;3.30;84.30;;;;;;6121281;23;20418;-87
2021/04/17 00:46:43;;;;;;;17.57;15.70;;;3.30;84.10;;;;;;6120066;23;20490;-86
2021/04/17 00:49:12;;;;;;;17.10;14.13;;;3.20;84.60;;;;;;6125369;23;20415;-84
2021/04/17 00:51:39;;;;;;;15.83;14.13;;;3.20;84.70;;;;;;6111513;23;20417;-83
2021/04/17 00:54:09;;;;;;;15.00;13.43;;;3.10;85.20;;;;;;6084501;23;20411;-83
2021/04/17 00:56:39;;;;;;;16.80;14.63;;;3.10;85.40;;;;;;6120051;23;20425;-88
2021/04/17 00:59:08;;;;;;;15.83;14.23;;;3.00;85.50;;;;;;6097471;23;20490;-88
2021/04/17 01:01:38;;;;;;;15.20;13.70;;;3.00;86.20;;;;;;6124180;23;20434;-84
2021/04/17 01:04:11;;;;;;;16.30;14.43;;;2.90;86.60;;;;;;6120779;23;20421;-83
2021/04/17 01:06:43;;;;;;;19.43;14.57;;;2.80;87.50;;;;;;6108566;23;20903;-84
2021/04/17 01:09:14;;;;;;;17.90;14.47;;;2.80;88.20;;;;;;6119168;23;20402;-84
2021/04/17 01:11:45;;;;;;;16.80;15.10;;;2.70;88.90;;;;;;6107031;23;20410;-87
2021/04/17 01:14:17;;;;;;;18.23;14.97;;;2.70;90.10;;;;;;6107388;23;20403;-88
2021/04/17 01:16:46;;;;;;;19.47;17.00;;;2.80;90.00;;;;;;6117158;23;20414;-85
2021/04/17 01:19:24;;;;;;;21.60;17.10;;;2.80;89.70;;;;;;6119456;23;20799;-83
2021/04/17 01:21:53;;;;;;;20.63;16.17;;;2.80;90.10;;;;;;6108435;23;20456;-83
2021/04/17 01:24:22;;;;;;;21.03;16.90;;;2.70;90.30;;;;;;6118064;23;20474;-83
2021/04/17 01:26:50;;;;;;;19.03;15.13;;;2.80;90.20;;;;;;6107344;23;20442;-83
2021/04/17 01:29:26;;;;;;;17.60;14.30;;;2.80;90.00;;;;;;6116562;23;20488;-83
2021/04/17 01:31:53;;;;;;;20.97;16.90;;;2.80;90.00;;;;;;6105429;23;20414;-84
2021/04/17 01:34:23;;;;;;;18.83;16.10;;;2.80;89.90;;;;;;6117557;23;20484;-85
2021/04/17 01:36:55;;;;;;;21.40;16.70;;;2.80;90.20;;;;;;6108469;23;20422;-85
2021/04/17 01:39:26;;;;;;;18.07;15.60;;;2.70;90.20;;;;;;6109040;23;20977;-83
2021/04/17 01:44:41;;;;;;;19.03;16.73;;;2.70;90.20;;;;;;6118247;23;20452;-86
2021/04/17 01:47:11;;;;;;;17.80;15.60;;;2.70;90.40;;;;;;6119353;23;20477;-86
2021/04/17 01:49:42;;;;;;;18.60;16.20;;;2.70;90.80;;;;;;6118117;23;20418;-86
2021/04/17 01:52:14;;;;;;;22.43;16.87;;;2.80;91.00;;;;;;6092431;23;20410;-83
2021/04/17 01:54:46;;;;;;;19.03;15.50;;;2.60;90.80;;;;;;6119283;23;20431;-84
2021/04/17 01:57:20;;;;;;;18.70;16.70;;;2.50;91.30;;;;;;6108490;23;20433;-83
2021/04/17 01:59:51;;;;;;;18.60;16.70;;;2.50;91.50;;;;;;6117902;23;20434;-86
2021/04/17 02:02:17;;;;;;;18.33;16.30;;;2.50;91.70;;;;;;6117631;23;20418;-83
2021/04/17 02:04:44;;;;;;;18.60;16.33;;;2.50;91.80;;;;;;6090423;23;20465;-83
2021/04/17 02:07:14;;;;;;;21.20;16.23;;;2.50;92.10;;;;;;6107766;23;20418;-85
2021/04/17 02:09:41;;;;;;;19.83;17.37;;;2.40;92.00;;;;;;6081684;23;20497;-85
2021/04/17 02:12:09;;;;;;;18.83;16.23;;;2.40;92.40;;;;;;6107421;23;20489;-88
2021/04/17 02:14:39;;;;;;;19.80;15.63;;;2.40;92.60;;;;;;6118003;23;20410;-85
2021/04/17 02:17:15;;;;;;;19.10;17.00;;;2.40;92.50;;;;;;6080992;23;20414;-84
2021/04/17 02:19:53;;;;;;;18.00;15.87;;;2.40;92.70;;;;;;6107244;23;20421;-86
2021/04/17 02:22:24;;;;;;;19.47;16.23;;;2.40;92.50;;;;;;6115346;23;20633;-83
2021/04/17 02:24:51;;;;;;;17.77;15.70;;;2.40;92.70;;;;;;6118633;23;20473;-84
2021/04/17 02:27:20;;;;;;;17.40;15.60;;;2.40;93.30;;;;;;6130879;23;21112;-84
2021/04/17 02:29:51;;;;;;;19.90;17.70;;;2.40;93.00;;;;;;6131756;23;20410;-87
2021/04/17 02:32:19;;;;;;;17.53;15.73;;;2.40;93.60;;;;;;6096971;23;20430;-83
2021/04/17 02:34:46;;;;;;;18.27;16.20;;;2.40;93.90;;;;;;6126160;23;20394;-88
2021/04/17 02:37:12;;;;;;;20.13;15.63;;;2.30;94.30;;;;;;6120547;23;20412;-85
2021/04/17 02:39:40;;;;;;;20.27;16.50;;;2.30;94.70;;;;;;6118464;23;20432;-84
2021/04/17 02:42:08;;;;;;;18.90;16.90;;;2.30;94.80;;;;;;6105655;23;20446;-86
2021/04/17 02:44:35;;;;;;;18.67;16.67;;;2.40;95.00;;;;;;6103095;23;20637;-85
2021/04/17 02:47:04;;;;;;;20.03;17.13;;;2.40;94.60;;;;;;6117559;23;20428;-82
2021/04/17 02:49:30;;;;;;;21.77;18.70;;;2.40;94.60;;;;;;6106481;23;20726;-87
2021/04/17 02:51:57;;;;;;;19.00;15.23;;;2.40;94.40;;;;;;6124872;23;20414;-83
2021/04/17 02:54:24;;;;;;;20.17;16.53;;;2.50;94.30;;;;;;6120325;23;20405;-86
2021/04/17 02:56:50;;;;;;;19.40;16.10;;;2.50;93.90;;;;;;6121067;23;20395;-84
2021/04/17 02:59:17;;;;;;;20.67;18.47;;;2.50;94.10;;;;;;6095647;23;20402;-85
2021/04/17 03:01:44;;;;;;;17.97;16.10;;;2.50;93.70;;;;;;6084799;23;20501;-86
2021/04/17 03:04:12;;;;;;;20.63;16.80;;;2.50;93.70;;;;;;6120257;23;20411;-85
2021/04/17 03:06:40;;;;;;;22.33;17.73;;;2.60;93.60;;;;;;6111126;23;20426;-83
2021/04/17 03:09:08;;;;;;;19.40;17.40;;;2.50;93.20;;;;;;6120750;23;20421;-84
2021/04/17 03:11:35;;;;;;;18.73;16.80;;;2.50;93.30;;;;;;6118449;23;20433;-85
2021/04/17 03:14:03;;;;;;;19.33;16.80;;;2.50;93.30;;;;;;6118957;23;20411;-83
2021/04/17 03:16:31;;;;;;;18.77;16.47;;;2.60;93.10;;;;;;6107388;23;20421;-85
2021/04/17 03:18:59;;;;;;;22.90;17.57;;;2.40;93.10;;;;;;6118394;23;20422;-86
2021/04/17 03:21:27;;;;;;;19.70;17.60;;;2.30;94.10;;;;;;6118263;23;20434;-83
2021/04/17 03:23:53;;;;;;;18.93;16.47;;;2.40;94.70;;;;;;6083942;23;20470;-85
2021/04/17 03:26:20;;;;;;;21.17;17.60;;;2.40;94.50;;;;;;6110061;23;20421;-83
2021/04/17 03:28:47;;;;;;;17.30;15.50;;;2.40;94.60;;;;;;6118410;23;20418;-85
2021/04/17 03:31:15;;;;;;;18.80;16.80;;;2.50;94.50;;;;;;6117658;23;20418;-84
2021/04/17 03:33:42;;;;;;;18.93;17.00;;;2.60;94.00;;;;;;6118988;23;20457;-85
2021/04/17 03:36:10;;;;;;;19.07;17.00;;;2.60;93.20;;;;;;6092823;23;20430;-82
2021/04/17 03:38:37;;;;;;;20.70;17.23;;;2.70;93.20;;;;;;6120144;23;21258;-82
2021/04/17 03:41:05;;;;;;;19.83;16.60;;;2.70;92.80;;;;;;6122289;23;20434;-88
2021/04/17 03:43:31;;;;;;;18.90;16.90;;;2.80;92.50;;;;;;6111894;23;20426;-83
2021/04/17 03:45:58;;;;;;;20.80;17.80;;;2.80;91.60;;;;;;6095120;23;20411;-84
2021/04/17 03:48:25;;;;;;;21.87;17.13;;;2.80;91.80;;;;;;6082905;23;20421;-84
2021/04/17 03:50:52;;;;;;;20.97;17.73;;;2.80;91.40;;;;;;6107620;23;20414;-84
2021/04/17 03:53:20;;;;;;;19.30;17.20;;;2.80;92.10;;;;;;6118049;23;20496;-83
2021/04/17 03:55:51;;;;;;;19.73;16.90;;;2.80;92.30;;;;;;6108667;23;21206;-87
2021/04/17 03:58:43;;;;;;;19.90;17.63;;;2.90;91.20;;;;;;6117871;23;20414;-82
2021/04/17 04:01:10;;;;;;;20.90;16.40;;;2.90;90.80;;;;;;6116124;23;20438;-82
2021/04/17 04:03:41;;;;;;;20.23;18.03;;;2.90;91.00;;;;;;6116942;23;20426;-82
2021/04/17 04:06:11;;;;;;;18.27;16.43;;;2.90;90.90;;;;;;6106511;23;20478;-84
2021/04/17 04:08:37;;;;;;;18.20;16.00;;;2.90;90.70;;;;;;6117116;23;20505;-85
2021/04/17 04:11:06;;;;;;;19.90;17.37;;;3.00;90.70;;;;;;6117624;23;20445;-83
2021/04/17 04:13:33;;;;;;;19.50;16.97;;;3.00;90.20;;;;;;6120800;23;20446;-84
2021/04/17 04:15:59;;;;;;;17.50;15.70;;;3.00;90.30;;;;;;6116678;23;20403;-85
2021/04/17 04:18:26;;;;;;;20.80;17.20;;;3.00;90.20;;;;;;6117014;23;20434;-87
2021/04/17 04:20:52;;;;;;;19.27;17.20;;;3.10;90.10;;;;;;6110319;23;20435;-84
2021/04/17 04:23:23;;;;;;;18.50;16.33;;;3.10;89.80;;;;;;6120125;23;20429;-88
2021/04/17 04:26:06;;;;;;;18.10;16.27;;;3.00;89.60;;;;;;6117202;23;20426;-87
2021/04/17 04:28:36;;;;;;;17.97;16.17;;;3.10;89.10;;;;;;6130666;23;20425;-85
2021/04/17 04:31:03;;;;;;;20.30;17.30;;;3.00;89.00;;;;;;6124081;23;20422;-84
2021/04/17 04:33:30;;;;;;;18.67;16.77;;;2.90;90.00;;;;;;6103479;23;20417;-83
2021/04/17 04:35:57;;;;;;;18.90;17.00;;;2.90;90.30;;;;;;6091755;23;20418;-83
2021/04/17 04:38:25;;;;;;;21.00;17.97;;;3.00;90.30;;;;;;6090975;23;20941;-85
2021/04/17 04:40:52;;;;;;;20.63;16.13;;;3.00;90.30;;;;;;6106427;23;20497;-84
2021/04/17 04:43:18;;;;;;;19.60;17.50;;;3.00;90.00;;;;;;6114880;23;20914;-82
2021/04/17 04:45:47;;;;;;;22.93;17.60;;;2.90;90.20;;;;;;6116253;23;20406;-82
2021/04/17 04:48:20;;;;;;;20.80;17.57;;;2.90;90.40;;;;;;6128080;23;20406;-85
2021/04/17 04:50:49;;;;;;;19.80;16.33;;;2.90;90.60;;;;;;6086566;23;20417;-83
2021/04/17 04:53:17;;;;;;;17.37;15.13;;;2.90;90.50;;;;;;6108763;23;20418;-84
2021/04/17 04:55:44;;;;;;;18.17;16.10;;;3.00;90.20;;;;;;6081858;23;20445;-84
2021/04/17 04:58:11;;;;;;;21.40;15.80;;;3.10;90.20;;;;;;6097600;23;20406;-83
2021/04/17 05:00:38;;;;;;;18.87;16.53;;;3.00;90.20;;;;;;6121667;23;20419;-83
2021/04/17 05:03:07;;;;;;;20.37;18.17;;;3.00;90.20;;;;;;6093864;23;20433;-82
2021/04/17 05:05:34;;;;;;;16.03;14.53;;;3.10;90.30;;;;;;6118249;23;20419;-85
2021/04/17 05:08:01;;;;;;;19.30;17.30;;;3.10;90.30;;;;;;6108855;23;21076;-84
2021/04/17 05:10:27;;;;;;;19.13;16.40;;;3.10;90.10;;;;;;6118245;23;20432;-82
2021/04/17 05:12:54;;;;;;;18.57;16.23;;;3.10;90.10;;;;;;6120759;23;20465;-83
2021/04/17 05:15:23;;;;;;;18.20;15.23;;;3.10;90.20;;;;;;6120180;23;20414;-86
2021/04/17 05:17:50;;;;;;;19.37;17.37;;;3.20;90.20;;;;;;6120565;23;20417;-83
2021/04/17 05:20:18;;;;;;;17.97;16.13;;;3.20;88.80;;;;;;6119326;23;20414;-83
2021/04/17 05:22:45;;;;;;;17.77;15.87;;;3.30;88.50;;;;;;6118403;23;20498;-85
2021/04/17 05:25:13;;;;;;;20.27;16.73;;;3.20;88.70;;;;;;6118895;23;20414;-84
2021/04/17 05:27:40;;;;;;;17.30;15.60;;;3.30;88.00;;;;;;6119081;23;20442;-84
2021/04/17 05:30:09;;;;;;;17.33;15.47;;;3.30;88.40;;;;;;6116468;23;20484;-83
2021/04/17 05:33:00;;;;;;;20.03;14.93;;;3.40;87.70;;;;;;6119059;23;20393;-83
2021/04/17 05:35:28;;;;;;;16.50;14.70;;;3.40;86.80;;;;;;6118957;23;20415;-85
2021/04/17 05:37:55;;;;;;;16.73;15.03;;;3.30;88.30;;;;;;6130202;23;20422;-86
2021/04/17 05:40:23;;;;;;;17.37;15.57;;;3.50;88.10;;;;;;6119432;23;20438;-89
2021/04/17 05:42:49;;;;;;;17.50;15.70;;;3.60;85.90;;;;;;6130050;23;20409;-84
2021/04/17 05:45:16;;;;;;;22.23;16.93;;;3.50;86.30;;;;;;6126215;23;20474;-85
2021/04/17 05:47:43;;;;;;;18.13;16.27;;;3.50;86.40;;;;;;6115435;23;20733;-84
2021/04/17 05:50:10;;;;;;;16.33;14.63;;;3.70;86.20;;;;;;6114603;23;20408;-82
2021/04/17 05:52:38;;;;;;;19.80;15.90;;;3.90;83.30;;;;;;6124808;23;20469;-85
2021/04/17 05:55:06;;;;;;;18.13;16.23;;;3.90;82.70;;;;;;6114202;23;20914;-85
2021/04/17 05:57:32;;;;;;;18.67;15.43;;;3.90;83.10;;;;;;6117798;23;20410;-83
2021/04/17 05:59:59;;;;;;;18.53;16.20;;;4.00;83.30;;;;;;6117347;23;20417;-84
2021/04/17 06:02:25;;;;;;;17.03;15.13;;;4.10;82.00;;;;;;6107070;23;20458;-83
2021/04/17 06:04:52;;;;;;;16.93;15.27;;;4.20;81.50;;;;;;6117350;23;20418;-85
2021/04/17 06:07:18;;;;;;;16.63;14.87;;;4.20;81.20;;;;;;6116904;23;20430;-83
2021/04/17 06:09:46;;;;;;;18.17;16.33;;;4.10;81.80;;;;;;6115216;23;20943;-84
2021/04/17 06:12:16;;;;;;;16.23;14.40;;;4.10;81.50;;;;;;6114729;23;20481;-87
2021/04/17 06:14:42;;;;;;;18.20;15.50;;;4.20;81.30;;;;;;6112022;23;20443;-86
2021/04/17 06:17:09;;;;;;;17.47;15.57;;;4.20;81.50;;;;;;6112660;23;20426;-85
2021/04/17 06:19:37;;;;;;;16.40;14.80;;;4.50;79.40;;;;;;6115471;23;20453;-84
2021/04/17 06:22:03;;;;;;;17.87;16.07;;;4.40;79.00;;;;;;6117789;23;20430;-85
2021/04/17 06:24:30;;;;;;;20.30;15.87;;;4.80;77.50;;;;;;6106739;23;20501;-84
2021/04/17 06:26:57;;;;;;;18.33;14.83;;;5.10;77.00;;;;;;6103823;23;20410;-84
2021/04/17 06:29:24;;;;;;;14.57;12.90;;;5.00;76.00;;;;;;6105829;23;20430;-84
2021/04/17 06:31:50;;;;;;;16.03;14.43;;;4.60;76.00;;;;;;6113352;23;20441;-83
2021/04/17 06:34:17;;;;;;;15.50;14.00;;;4.60;77.10;;;;;;6114739;23;20749;-83
2021/04/17 06:36:47;;;;;;;15.23;13.63;;;4.90;75.80;;;;;;6113964;23;20489;-87
2021/04/17 06:39:15;;;;;;;18.13;15.10;;;5.10;75.80;;;;;;6105666;23;20421;-83
2021/04/17 06:41:43;;;;;;;16.17;14.20;;;5.50;74.10;;;;;;6103634;23;20532;-84
2021/04/17 06:44:11;;;;;;;15.27;13.27;;;6.00;73.80;;;;;;6113702;23;20434;-89
2021/04/17 06:46:39;;;;;;;15.70;12.63;;;6.50;71.40;;;;;;6112335;23;20412;-86
2021/04/17 06:49:09;;;;;;;15.53;12.30;;;6.50;70.60;;;;;;6121047;23;20483;-88
2021/04/17 06:51:37;;;;;;;14.10;12.10;;;6.30;70.50;;;;;;6126292;23;20470;-89
2021/04/17 06:54:06;;;;;;;13.10;11.77;;;6.20;70.40;;;;;;6129030;23;20453;-87
2021/04/17 06:56:33;;;;;;;14.23;12.83;;;6.20;70.60;;;;;;6130866;23;20414;-86
2021/04/17 06:59:00;;;;;;;15.23;13.63;;;6.50;70.40;;;;;;6120030;23;21094;-85
2021/04/17 07:01:29;;;;;;;14.00;12.70;;;6.40;69.30;;;;;;6120668;23;20497;-85
2021/04/17 07:03:59;;;;;;;13.20;11.87;;;6.30;69.60;;;;;;6108183;23;20894;-85
2021/04/17 07:06:25;;;;;;;12.20;10.90;;;6.40;69.20;;;;;;6114974;23;20447;-85
2021/04/17 07:08:52;;;;;;;16.80;11.80;;;7.20;67.80;;;;;;6114963;23;20426;-84
2021/04/17 07:11:19;;;;;;;13.07;11.20;;;6.60;68.30;;;;;;6104239;23;20411;-84
2021/04/17 07:14:09;;;;;;;12.73;11.53;;;6.80;67.90;;;;;;6115006;23;20430;-84
2021/04/17 07:17:01;;;;;;;12.10;10.90;;;6.80;66.90;;;;;;6113601;23;20575;-83
2021/04/17 07:19:49;;;;;;;10.37;9.37;;;7.00;67.20;;;;;;6114079;23;20414;-85
2021/04/17 07:22:18;;;;;;;12.67;9.33;;;7.50;65.10;;;;;;6103357;23;20540;-83
2021/04/17 07:24:50;;;;;;;9.97;8.70;;;7.60;63.50;;;;;;6072552;23;20474;-83
2021/04/17 07:27:35;;;;;;;9.23;8.43;;;7.20;63.40;;;;;;6085482;23;20735;-85
2021/04/17 07:30:05;;;;;;;9.90;8.43;;;7.10;63.10;;;;;;6084625;23;20761;-86
2021/04/17 07:32:33;;;;;;;10.20;8.37;;;7.30;62.60;;;;;;6085989;23;20413;-84
2021/04/17 07:35:09;;;;;;;12.90;8.60;;;7.00;62.00;;;;;;6087263;23;20417;-84
2021/04/17 07:37:38;;;;;;;7.93;7.13;;;7.60;62.20;;;;;;6079496;23;20562;-86
2021/04/17 07:40:21;;;;;;;12.13;5.90;;;7.00;59.50;;;;;;6080921;23;20496;-83
2021/04/17 07:42:52;;;;;;;5.90;5.30;;;7.40;58.10;;;;;;6100258;23;20432;-85
2021/04/17 07:45:21;;;;;;;7.63;5.60;;;7.70;57.30;;;;;;6101110;23;20390;-86
2021/04/17 07:47:48;;;;;;;6.40;5.80;;;7.90;56.30;;;;;;6098728;23;20405;-86
2021/04/17 07:50:17;;;;;;;5.93;5.43;;;7.30;55.90;;;;;;6097982;23;20429;-87
2021/04/17 07:52:44;;;;;;;6.17;5.57;;;7.40;56.70;;;;;;6099491;23;20407;-86
2021/04/17 07:55:12;;;;;;;5.57;5.07;;;7.80;56.30;;;;;;6101028;23;20409;-82
2021/04/17 07:57:40;;;;;;;6.30;5.10;;;7.30;55.50;;;;;;6103039;23;20408;-85
2021/04/17 08:00:11;;;;;;;14.80;5.20;;;7.60;55.60;;;;;;6102287;23;20414;-84
2021/04/17 08:02:42;;;;;;;8.07;5.47;;;7.30;55.20;;;;;;6090777;23;20486;-83
2021/04/17 08:05:13;;;;;;;5.80;4.97;;;7.80;55.10;;;;;;6090772;23;20407;-86
2021/04/17 08:07:42;;;;;;;5.33;4.90;;;7.60;54.50;;;;;;6090889;23;20415;-85
2021/04/17 08:10:11;;;;;;;5.80;5.23;;;8.00;54.90;;;;;;6089518;23;20491;-82
2021/04/17 08:12:41;;;;;;;6.60;4.97;;;7.50;54.20;;;;;;6101428;23;20405;-85
2021/04/17 08:15:13;;;;;;;6.40;5.33;;;7.60;54.70;;;;;;6087899;23;20424;-85
2021/04/17 08:17:45;;;;;;;5.23;4.10;;;8.00;54.90;;;;;;6096950;23;20786;-84
2021/04/17 08:20:18;;;;;;;4.80;4.10;;;7.80;53.60;;;;;;6082056;23;20429;-86
2021/04/17 08:22:48;;;;;;;5.93;4.20;;;7.80;53.00;;;;;;6089343;23;20535;-85
2021/04/17 08:25:20;;;;;;;8.23;5.17;;;8.20;51.80;;;;;;6110987;23;20421;-86
2021/04/17 08:27:47;;;;;;;3.97;3.67;;;8.20;52.40;;;;;;6117381;23;20579;-84
2021/04/17 08:30:22;;;;;;;6.17;4.13;;;8.20;52.50;;;;;;6111378;23;20422;-84
2021/04/17 08:32:48;;;;;;;4.37;3.90;;;8.80;50.60;;;;;;6120371;23;20418;-84
2021/04/17 08:35:17;;;;;;;5.10;3.43;;;7.70;49.70;;;;;;6120440;23;20417;-83
2021/04/17 08:38:08;;;;;;;4.13;3.20;;;7.60;48.80;;;;;;6120508;23;20410;-84
2021/04/17 08:40:49;;;;;;;4.00;3.57;;;8.50;49.50;;;;;;6119259;23;21032;-83
2021/04/17 08:43:30;;;;;;;4.70;3.73;;;9.10;49.10;;;;;;6081817;23;21220;-83
2021/04/17 08:46:13;;;;;;;2.67;2.47;;;8.60;49.20;;;;;;6114254;23;20438;-86
2021/04/17 08:48:51;;;;;;;3.90;3.40;;;9.10;49.30;;;;;;6116254;23;20499;-84
2021/04/17 08:51:35;;;;;;;4.03;3.60;;;8.80;49.90;;;;;;6115062;23;20893;-86
2021/04/17 08:54:32;;;;;;;4.90;3.40;;;9.10;49.40;;;;;;6091324;23;20465;-86
2021/04/17 08:57:01;;;;;;;2.97;2.77;;;9.30;49.30;;;;;;6025325;23;21454;-85
2021/04/17 08:59:31;;;;;;;7.03;3.57;;;8.70;48.80;;;;;;6093239;23;20530;-87
2021/04/17 09:02:00;;;;;;;2.80;2.50;;;8.70;48.60;;;;;;6104821;23;20444;-82
2021/04/17 09:04:27;;;;;;;2.87;2.53;;;8.30;47.50;;;;;;6115137;23;20518;-83
2021/04/17 09:06:56;;;;;;;3.00;2.70;;;8.80;48.80;;;;;;6116536;23;20414;-83
2021/04/17 09:09:30;;;;;;;5.40;3.50;;;9.00;48.30;;;;;;6115927;23;20417;-83
2021/04/17 09:12:14;;;;;;;4.93;3.10;;;9.70;48.20;;;;;;6106418;23;20407;-84
2021/04/17 09:15:01;;;;;;;4.50;3.70;;;8.40;48.40;;;;;;6114194;23;20711;-84
2021/04/17 09:17:51;;;;;;;4.57;3.43;;;9.00;49.30;;;;;;6105165;23;20861;-83
2021/04/17 09:20:38;;;;;;;4.20;3.50;;;8.50;49.50;;;;;;6114013;23;20417;-82
2021/04/17 09:23:06;;;;;;;4.20;3.80;;;8.10;50.40;;;;;;6114543;23;20440;-87
2021/04/17 09:25:40;;;;;;;4.70;3.60;;;8.30;50.10;;;;;;6118890;23;20487;-87
2021/04/17 09:28:06;;;;;;;4.63;4.10;;;8.30;50.60;;;;;;6124773;23;20421;-84
2021/04/17 09:30:33;;;;;;;6.07;4.03;;;7.90;50.80;;;;;;6116335;23;20398;-85
2021/04/17 09:32:59;;;;;;;6.53;4.20;;;7.80;50.70;;;;;;6125981;23;20441;-82
2021/04/17 09:35:28;;;;;;;4.50;4.10;;;8.10;51.30;;;;;;6117331;23;20413;-82
2021/04/17 09:38:14;;;;;;;8.43;5.23;;;7.80;51.30;;;;;;6103893;23;20470;-83
2021/04/17 09:40:43;;;;;;;5.37;4.87;;;7.70;52.30;;;;;;6112751;23;20746;-82
2021/04/17 09:43:21;;;;;;;6.03;4.47;;;8.10;52.20;;;;;;6108751;23;20924;-84
2021/04/17 09:45:50;;;;;;;5.27;4.87;;;8.50;52.50;;;;;;6106457;23;20414;-84
2021/04/17 09:48:19;;;;;;;5.43;4.93;;;8.00;51.90;;;;;;6110351;23;20425;-81
2021/04/17 09:50:46;;;;;;;7.70;4.97;;;7.80;52.80;;;;;;6112396;23;20428;-82
2021/04/17 09:53:15;;;;;;;6.17;4.87;;;7.90;53.80;;;;;;6112496;23;21098;-83
2021/04/17 09:55:53;;;;;;;6.07;5.03;;;7.60;53.20;;;;;;6111369;23;20441;-82
2021/04/17 09:58:32;;;;;;;4.43;4.03;;;8.40;53.40;;;;;;6113653;23;20419;-84
2021/04/17 10:01:06;;;;;;;3.27;2.73;;;7.60;53.60;;;;;;6115149;23;20440;-85
2021/04/17 10:03:34;;;;;;;3.40;2.60;;;7.10;52.70;;;;;;6120251;23;20444;-83
2021/04/17 10:06:01;;;;;;;4.07;3.67;;;7.00;53.00;;;;;;6111716;23;20414;-83
2021/04/17 10:08:31;;;;;;;3.40;3.07;;;7.20;52.80;;;;;;6122929;23;20420;-85
2021/04/17 10:10:59;;;;;;;5.90;4.03;;;7.10;52.90;;;;;;6123067;23;20453;-85
2021/04/17 10:13:43;;;;;;;3.30;2.97;;;7.00;53.60;;;;;;6114695;23;20759;-83
2021/04/17 10:16:11;;;;;;;4.07;3.57;;;7.00;53.40;;;;;;6110677;23;20411;-84
2021/04/17 10:18:39;;;;;;;4.80;4.23;;;6.40;53.70;;;;;;6120263;23;20451;-86
2021/04/17 10:21:07;;;;;;;6.90;4.20;;;6.80;55.10;;;;;;6119300;23;20474;-82
2021/04/17 10:23:35;;;;;;;5.50;4.20;;;6.50;55.50;;;;;;6117360;23;20431;-83
2021/04/17 10:26:06;;;;;;;5.60;3.53;;;6.30;55.90;;;;;;6117631;23;20418;-82
2021/04/17 10:28:34;;;;;;;4.53;3.70;;;6.30;55.70;;;;;;6117707;23;20410;-82
2021/04/17 10:31:12;;;;;;;3.93;3.63;;;6.30;56.10;;;;;;6110330;23;20410;-85
2021/04/17 10:33:43;;;;;;;3.80;3.40;;;6.70;56.00;;;;;;6120488;23;20815;-85
2021/04/17 10:36:17;;;;;;;3.70;3.33;;;6.80;56.20;;;;;;6118383;23;20425;-82
2021/04/17 10:38:45;;;;;;;3.83;3.53;;;6.70;55.80;;;;;;6110376;23;20419;-84
2021/04/17 10:41:18;;;;;;;4.80;3.47;;;6.90;56.00;;;;;;6119578;23;20533;-85
2021/04/17 10:43:44;;;;;;;3.80;3.50;;;7.10;55.70;;;;;;6120018;23;20587;-85
2021/04/17 10:46:12;;;;;;;4.33;3.93;;;6.70;55.30;;;;;;6108006;23;20404;-85
2021/04/17 10:48:44;;;;;;;4.63;4.13;;;6.90;55.30;;;;;;6117545;23;20434;-83
2021/04/17 10:51:14;;;;;;;5.53;4.63;;;7.20;56.00;;;;;;6119098;23;20506;-85
2021/04/17 10:53:42;;;;;;;3.97;3.67;;;7.10;56.00;;;;;;6117859;23;20420;-85
2021/04/17 10:56:14;;;;;;;4.93;3.90;;;7.20;55.70;;;;;;6117425;23;20401;-85
2021/04/17 10:58:43;;;;;;;4.43;4.03;;;7.90;55.50;;;;;;6089984;23;20418;-84
2021/04/17 11:01:11;;;;;;;4.10;3.80;;;7.10;56.00;;;;;;6117051;23;20431;-83
2021/04/17 11:03:42;;;;;;;3.27;2.93;;;7.10;56.20;;;;;;6106666;23;20741;-82
2021/04/17 11:06:13;;;;;;;4.23;3.83;;;7.10;56.50;;;;;;6111676;23;20425;-83
2021/04/17 11:08:40;;;;;;;3.90;3.43;;;7.10;56.50;;;;;;6105409;23;20428;-84
2021/04/17 11:11:08;;;;;;;3.80;3.50;;;7.40;56.10;;;;;;6104597;23;20413;-84
2021/04/17 11:13:37;;;;;;;4.00;3.60;;;6.40;55.20;;;;;;6120257;23;20409;-88
2021/04/17 11:16:05;;;;;;;5.10;3.37;;;7.00;56.00;;;;;;6125392;23;20795;-86
2021/04/17 11:18:36;;;;;;;3.63;3.33;;;7.70;55.90;;;;;;6126565;23;20499;-84
2021/04/17 11:21:15;;;;;;;3.70;3.40;;;7.00;56.10;;;;;;6125832;23;20487;-85
2021/04/17 11:23:53;;;;;;;4.00;3.60;;;6.60;56.00;;;;;;6123153;23;20443;-84
2021/04/17 11:26:21;;;;;;;4.00;3.60;;;7.00;56.90;;;;;;6126628;23;20414;-88
2021/04/17 11:28:51;;;;;;;4.63;4.23;;;7.00;57.60;;;;;;6127505;23;20399;-88
2021/04/17 11:31:20;;;;;;;5.03;4.50;;;6.60;58.00;;;;;;6124534;23;20404;-83
2021/04/17 11:33:48;;;;;;;3.70;3.37;;;6.30;58.40;;;;;;6112853;23;20434;-84
2021/04/17 11:36:15;;;;;;;3.53;3.23;;;6.40;58.00;;;;;;6112971;23;20469;-88
2021/04/17 11:38:42;;;;;;;2.93;2.73;;;6.40;57.40;;;;;;6110354;23;20481;-83
2021/04/17 11:41:09;;;;;;;3.60;3.30;;;6.60;57.20;;;;;;6119719;23;20438;-83
2021/04/17 11:43:36;;;;;;;3.50;2.90;;;6.40;57.70;;;;;;6118136;23;20945;-86
2021/04/17 11:48:49;;;;;;;3.77;3.47;;;6.70;57.10;;;;;;6111349;23;20471;-83
2021/04/17 11:51:17;;;;;;;4.53;3.07;;;6.60;56.60;;;;;;6121297;23;20409;-86
2021/04/17 11:53:45;;;;;;;3.83;3.53;;;6.80;57.40;;;;;;6115924;23;20420;-86
2021/04/17 11:56:11;;;;;;;4.27;3.50;;;6.90;56.70;;;;;;6101293;23;20927;-87
2021/04/17 11:58:38;;;;;;;4.13;2.97;;;7.10;57.20;;;;;;6109217;23;20914;-89
2021/04/17 12:01:06;;;;;;;5.40;4.53;;;7.50;56.40;;;;;;6114665;23;20440;-84
2021/04/17 12:03:38;;;;;;;3.83;3.30;;;7.40;56.30;;;;;;6103294;23;21268;-86
2021/04/17 12:06:07;;;;;;;4.33;4.03;;;7.20;55.60;;;;;;6085835;23;20410;-89
2021/04/17 12:08:45;;;;;;;5.00;4.50;;;7.70;55.50;;;;;;6111439;23;20404;-88
2021/04/17 12:11:12;;;;;;;4.50;4.00;;;7.20;56.20;;;;;;6106456;23;20412;-88
2021/04/17 12:13:39;;;;;;;4.17;3.87;;;7.30;56.30;;;;;;6106857;23;20425;-88
2021/04/17 12:16:11;;;;;;;4.23;3.90;;;7.70;55.90;;;;;;6105778;23;20410;-87
2021/04/17 12:18:38;;;;;;;4.13;3.73;;;8.40;55.40;;;;;;6112369;23;20419;-88
2021/04/17 12:21:04;;;;;;;4.30;3.60;;;9.10;55.00;;;;;;6111677;23;20469;-88
2021/04/17 12:23:31;;;;;;;4.03;3.73;;;9.10;53.80;;;;;;6100085;23;20542;-87
2021/04/17 12:26:00;;;;;;;3.73;3.43;;;8.90;54.70;;;;;;6102337;23;20505;-87
2021/04/17 12:28:30;;;;;;;4.30;3.57;;;9.00;54.00;;;;;;6112342;23;20850;-88
2021/04/17 12:30:58;;;;;;;3.70;3.40;;;9.00;54.20;;;;;;6113400;23;20893;-87
2021/04/17 12:33:29;;;;;;;4.17;3.87;;;9.60;53.70;;;;;;6112437;23;20421;-88
2021/04/17 12:36:09;;;;;;;4.10;3.77;;;7.90;53.20;;;;;;6103586;23;20831;-88
2021/04/17 12:38:35;;;;;;;4.23;3.83;;;8.30;54.00;;;;;;6101224;23;20413;-88
2021/04/17 12:41:04;;;;;;;4.37;3.97;;;7.90;54.00;;;;;;6101304;23;20436;-87
2021/04/17 12:43:30;;;;;;;3.97;3.57;;;8.00;54.20;;;;;;6108407;23;20489;-88
2021/04/17 12:45:57;;;;;;;4.83;3.93;;;8.20;53.90;;;;;;6109782;23;20524;-88
2021/04/17 12:48:25;;;;;;;4.17;3.87;;;8.30;54.60;;;;;;6084810;23;20422;-89
2021/04/17 12:50:52;;;;;;;4.10;3.80;;;7.90;54.20;;;;;;6102412;23;20423;-89
2021/04/17 12:53:25;;;;;;;4.20;3.90;;;8.20;54.80;;;;;;6123294;23;20409;-89
2021/04/17 12:55:56;;;;;;;4.23;3.93;;;8.30;53.90;;;;;;6123434;23;20494;-90
2021/04/17 12:58:23;;;;;;;7.07;4.17;;;9.20;55.20;;;;;;6124021;23;20868;-88
2021/04/17 13:00:53;;;;;;;4.60;4.20;;;8.80;54.10;;;;;;6090035;23;20425;-88
2021/04/17 13:03:20;;;;;;;4.97;4.47;;;8.40;54.20;;;;;;6090143;23;20415;-89
2021/04/17 13:05:50;;;;;;;5.50;4.30;;;8.00;54.10;;;;;;6119741;23;20432;-89